Time;durP1;ratioP1;P1;durP2;ratioP2;P2;SDS_P1;SDS_P2;PMS_P1;PMS_P2;Temp;Humidity;BMP_temperature;BMP_pressure;BME280_temperature;BME280_humidity;BME280_pressure;Samples;Min_cycle;Max_cycle;Signal;HPM_P1;HPM_P2
2023/01/23 00:00:27;;;;;;;0.40;0.40;;;;;;;10.27;58.78;103677.94;4984562;28;20475;-67
2023/01/23 00:02:53;;;;;;;0.43;0.43;;;;;;;10.05;60.15;103683.75;4986031;28;20288;-68
2023/01/23 00:05:18;;;;;;;0.30;0.30;;;;;;;9.96;60.78;103676.59;4983861;28;20395;-66
2023/01/23 00:07:44;;;;;;;0.40;0.40;;;;;;;10.00;59.86;103683.38;4984498;28;20068;-67
2023/01/23 00:10:10;;;;;;;0.40;0.40;;;;;;;9.64;61.84;103682.44;4985729;28;20080;-66
2023/01/23 00:12:35;;;;;;;0.40;0.40;;;;;;;9.29;63.16;103677.81;4984331;28;20430;-67
2023/01/23 00:15:01;;;;;;;0.50;0.50;;;;;;;9.60;61.70;103673.84;4987251;28;20031;-68
2023/01/23 00:17:26;;;;;;;0.47;0.47;;;;;;;10.02;60.59;103679.53;5001414;28;20084;-67
2023/01/23 00:19:53;;;;;;;0.50;0.50;;;;;;;10.26;60.08;103673.59;4983641;28;20035;-67
2023/01/23 00:22:19;;;;;;;0.35;0.35;;;;;;;10.02;60.45;103674.16;4985100;28;20042;-66
2023/01/23 00:24:44;;;;;;;0.52;0.52;;;;;;;9.92;60.88;103676.06;4985424;28;20050;-66
2023/01/23 00:27:10;;;;;;;0.47;0.47;;;;;;;9.77;61.15;103677.56;4983433;28;20092;-67
2023/01/23 00:29:36;;;;;;;0.30;0.30;;;;;;;10.05;60.20;103673.84;4985250;28;20049;-66
2023/01/23 00:32:01;;;;;;;0.20;0.20;;;;;;;10.03;60.18;103680.34;4984417;28;20042;-68
2023/01/23 00:34:26;;;;;;;0.30;0.30;;;;;;;9.95;60.85;103680.28;4985844;28;20038;-65
2023/01/23 00:36:52;;;;;;;0.28;0.28;;;;;;;9.97;60.50;103680.97;4982677;28;20109;-65
2023/01/23 00:39:19;;;;;;;0.20;0.20;;;;;;;9.93;60.82;103687.63;4990419;28;20030;-66
2023/01/23 00:41:46;;;;;;;0.28;0.28;;;;;;;10.06;60.37;103678.25;4992353;28;20093;-68
2023/01/23 00:44:12;;;;;;;0.43;0.43;;;;;;;9.75;60.54;103675.03;4992367;28;20041;-68
2023/01/23 00:46:38;;;;;;;0.50;0.50;;;;;;;9.92;60.30;103675.22;4992483;28;20609;-66
2023/01/23 00:49:03;;;;;;;0.35;0.35;;;;;;;9.77;60.81;103674.06;4991645;28;20061;-68
2023/01/23 00:51:29;;;;;;;0.40;0.40;;;;;;;10.11;59.74;103669.72;4992346;28;20066;-65
2023/01/23 00:53:54;;;;;;;0.43;0.43;;;;;;;9.98;60.43;103677.31;4992182;28;20561;-66
2023/01/23 00:56:20;;;;;;;0.30;0.30;;;;;;;9.97;60.90;103679.13;4991628;28;20092;-68
2023/01/23 00:58:45;;;;;;;0.20;0.20;;;;;;;9.85;61.25;103677.66;4992110;28;20097;-67
2023/01/23 01:01:11;;;;;;;0.40;0.40;;;;;;;10.13;60.35;103671.28;4991980;28;20105;-66
2023/01/23 01:03:37;;;;;;;0.30;0.30;;;;;;;10.00;60.62;103672.63;4992402;28;20038;-67
2023/01/23 01:06:03;;;;;;;0.40;0.40;;;;;;;9.72;61.52;103669.13;4991935;28;20038;-67
2023/01/23 01:08:28;;;;;;;0.40;0.40;;;;;;;9.70;61.46;103665.75;4992457;28;20515;-66
2023/01/23 01:10:53;;;;;;;0.40;0.40;;;;;;;9.98;60.87;103666.56;4993859;28;20031;-66
2023/01/23 01:13:20;;;;;;;0.30;0.30;;;;;;;9.98;60.51;103674.63;4977691;28;20030;-66
2023/01/23 01:15:49;;;;;;;0.45;0.45;;;;;;;10.18;60.01;103676.19;4992550;28;20018;-68
2023/01/23 01:18:16;;;;;;;0.30;0.30;;;;;;;10.05;60.33;103673.00;4991807;28;20047;-67
2023/01/23 01:20:42;;;;;;;0.40;0.40;;;;;;;9.99;60.32;103674.44;4991842;28;20409;-67
2023/01/23 01:23:07;;;;;;;0.30;0.30;;;;;;;10.28;59.79;103671.59;4991767;28;20034;-67
2023/01/23 01:25:33;;;;;;;0.40;0.40;;;;;;;10.08;60.19;103673.56;4991718;28;20049;-66
2023/01/23 01:27:58;;;;;;;0.30;0.30;;;;;;;10.17;60.08;103678.03;4992123;28;20033;-68
2023/01/23 01:30:25;;;;;;;0.40;0.40;;;;;;;10.17;60.31;103667.28;4991753;28;20056;-67
2023/01/23 01:32:52;;;;;;;0.30;0.30;;;;;;;10.39;59.57;103671.34;4991703;28;20061;-68
2023/01/23 01:35:19;;;;;;;0.30;0.30;;;;;;;10.26;59.62;103666.34;4991550;28;20064;-66
2023/01/23 01:37:44;;;;;;;0.45;0.45;;;;;;;10.52;58.96;103661.88;4994262;28;20055;-67
2023/01/23 01:40:20;;;;;;;0.20;0.20;;;;;;;10.18;60.05;103676.19;4985415;28;20101;-66
2023/01/23 01:42:56;;;;;;;0.35;0.35;;;;;;;10.43;59.56;103672.72;4992163;28;20504;-67
2023/01/23 01:45:59;;;;;;;0.20;0.20;;;;;;;10.25;59.84;103678.13;4991509;28;20034;-67
2023/01/23 01:48:29;;;;;;;0.35;0.35;;;;;;;10.31;59.41;103682.03;4991032;28;20392;-67
2023/01/23 01:50:56;;;;;;;0.40;0.40;;;;;;;10.26;59.50;103678.97;4990934;28;20057;-66
2023/01/23 01:53:24;;;;;;;0.57;0.57;;;;;;;10.34;59.82;103689.75;4991222;28;20042;-66
2023/01/23 01:55:50;;;;;;;0.30;0.30;;;;;;;10.09;59.30;103690.50;4990893;28;20053;-68
2023/01/23 01:58:16;;;;;;;0.40;0.40;;;;;;;10.43;59.33;103683.47;4989641;28;20034;-66
2023/01/23 02:00:41;;;;;;;0.40;0.40;;;;;;;10.60;58.57;103674.53;4991599;28;20073;-68
2023/01/23 02:03:07;;;;;;;0.47;0.47;;;;;;;10.70;58.14;103669.91;4991181;28;20074;-66
2023/01/23 02:05:38;;;;;;;0.45;0.45;;;;;;;10.35;59.55;103675.34;4991148;28;20034;-66
2023/01/23 02:08:17;;;;;;;0.32;0.32;;;;;;;10.45;59.34;103676.97;4989926;28;20034;-67
2023/01/23 02:10:43;;;;;;;0.30;0.30;;;;;;;10.09;59.49;103685.13;4991261;28;20039;-67
2023/01/23 02:13:21;;;;;;;0.47;0.47;;;;;;;10.44;59.47;103685.16;4990688;28;20049;-67
2023/01/23 02:15:47;;;;;;;0.45;0.45;;;;;;;10.30;59.37;103694.59;4991595;28;20085;-66
2023/01/23 02:18:13;;;;;;;0.40;0.40;;;;;;;10.09;60.03;103691.34;4991201;28;20054;-66
2023/01/23 02:20:38;;;;;;;0.38;0.38;;;;;;;10.46;58.98;103683.16;5007464;28;20141;-66
2023/01/23 02:23:19;;;;;;;0.35;0.35;;;;;;;10.14;60.24;103693.63;4995136;28;20121;-66
2023/01/23 02:25:57;;;;;;;0.30;0.30;;;;;;;10.15;60.23;103696.16;4995182;28;20041;-68
2023/01/23 02:28:39;;;;;;;0.40;0.40;;;;;;;10.36;59.97;103701.22;4981937;28;20066;-67
2023/01/23 02:31:05;;;;;;;0.40;0.40;;;;;;;10.47;59.03;103695.63;4975510;28;20057;-67
2023/01/23 02:33:30;;;;;;;0.30;0.30;;;;;;;10.23;59.61;103698.91;4975747;28;20476;-66
2023/01/23 02:35:59;;;;;;;0.25;0.25;;;;;;;10.44;59.45;103695.91;4975453;28;20055;-66
2023/01/23 02:38:30;;;;;;;0.30;0.30;;;;;;;10.28;59.89;103703.84;4987250;28;20038;-66
2023/01/23 02:40:57;;;;;;;0.40;0.40;;;;;;;10.47;58.85;103712.59;4994869;28;20058;-67
2023/01/23 02:43:26;;;;;;;0.20;0.20;;;;;;;10.22;60.06;103707.16;4994645;28;20042;-67
2023/01/23 02:45:55;;;;;;;0.40;0.40;;;;;;;10.42;59.66;103704.13;4995116;28;20148;-67
2023/01/23 02:48:21;;;;;;;0.25;0.25;;;;;;;10.50;58.95;103709.59;4994321;28;20034;-66
2023/01/23 02:50:46;;;;;;;0.25;0.25;;;;;;;10.32;59.42;103711.44;4994370;28;20041;-68
2023/01/23 02:53:12;;;;;;;0.40;0.40;;;;;;;10.24;60.17;103716.72;4994528;28;20126;-67
2023/01/23 02:55:42;;;;;;;0.47;0.47;;;;;;;10.13;60.20;103710.72;4994157;28;20039;-67
2023/01/23 03:00:52;;;;;;;0.20;0.20;;;;;;;9.80;60.31;103716.69;4995012;28;20049;-66
2023/01/23 03:03:17;;;;;;;0.40;0.40;;;;;;;10.41;59.24;103721.28;4995617;28;20053;-67
2023/01/23 03:05:43;;;;;;;0.38;0.38;;;;;;;10.43;59.39;103718.44;4978464;28;20439;-68
2023/01/23 03:08:08;;;;;;;0.20;0.20;;;;;;;10.45;59.12;103719.13;4975064;28;20038;-66
2023/01/23 03:10:33;;;;;;;0.40;0.40;;;;;;;10.50;59.06;103728.41;4974918;28;20035;-66
2023/01/23 03:13:02;;;;;;;0.20;0.20;;;;;;;10.67;58.57;103723.19;4975045;28;20117;-66
2023/01/23 03:15:28;;;;;;;0.45;0.45;;;;;;;10.29;59.36;103722.50;4975198;28;20174;-66
2023/01/23 03:17:53;;;;;;;0.40;0.40;;;;;;;10.36;59.20;103726.25;4974762;28;20090;-66
2023/01/23 03:20:22;;;;;;;0.20;0.20;;;;;;;10.45;59.43;103725.34;4974647;28;20035;-67
2023/01/23 03:22:48;;;;;;;0.40;0.40;;;;;;;10.15;60.56;103728.41;4974552;28;20049;-66
2023/01/23 03:25:13;;;;;;;0.30;0.30;;;;;;;10.21;60.14;103726.94;4992152;28;20038;-66
2023/01/23 03:27:39;;;;;;;0.25;0.25;;;;;;;10.21;59.54;103726.94;4994162;28;20049;-66
2023/01/23 03:30:14;;;;;;;0.40;0.40;;;;;;;10.42;59.47;103719.41;4994073;28;20134;-66
2023/01/23 03:32:41;;;;;;;0.55;0.55;;;;;;;10.31;60.12;103730.41;4992659;28;20045;-66
2023/01/23 03:35:12;;;;;;;0.25;0.25;;;;;;;10.17;59.81;103733.59;4993840;28;20289;-67
2023/01/23 03:37:38;;;;;;;0.30;0.30;;;;;;;9.87;60.83;103737.44;4993899;28;20554;-67
2023/01/23 03:42:47;;;;;;;0.43;0.43;;;;;;;10.60;58.70;103720.25;4994064;28;20053;-67
2023/01/23 03:45:12;;;;;;;0.38;0.38;;;;;;;10.63;58.77;103719.09;4993510;28;20415;-67
2023/01/23 03:47:38;;;;;;;0.30;0.30;;;;;;;10.22;59.37;103724.09;4993540;28;20601;-67
2023/01/23 03:50:04;;;;;;;0.40;0.40;;;;;;;10.21;59.95;103726.94;4991637;28;20030;-66
2023/01/23 03:52:30;;;;;;;0.38;0.38;;;;;;;10.41;59.54;103732.03;4993431;28;20506;-67
2023/01/23 03:54:56;;;;;;;0.20;0.20;;;;;;;10.37;59.25;103714.50;4993779;28;20053;-66
2023/01/23 03:57:21;;;;;;;0.35;0.35;;;;;;;10.53;59.15;103716.50;4993120;28;20099;-67
2023/01/23 03:59:47;;;;;;;0.30;0.30;;;;;;;10.63;58.83;103723.47;4996196;28;20042;-68
2023/01/23 04:02:12;;;;;;;0.35;0.35;;;;;;;10.61;58.82;103727.34;4986653;28;20050;-68
2023/01/23 04:04:38;;;;;;;0.30;0.30;;;;;;;10.31;59.46;103733.09;4993279;28;20661;-67
2023/01/23 04:07:04;;;;;;;0.40;0.40;;;;;;;10.22;60.46;103736.72;4993306;28;20478;-68
2023/01/23 04:09:29;;;;;;;0.30;0.30;;;;;;;10.14;60.24;103732.06;4993957;28;20042;-67
2023/01/23 04:11:56;;;;;;;0.43;0.43;;;;;;;9.81;61.20;103732.66;4992882;28;20113;-66
2023/01/23 04:14:23;;;;;;;0.32;0.32;;;;;;;10.25;60.21;103731.88;4993012;28;20046;-66
2023/01/23 04:16:49;;;;;;;0.30;0.30;;;;;;;10.29;60.09;103735.09;4993314;28;20054;-66
2023/01/23 04:19:18;;;;;;;0.30;0.30;;;;;;;10.26;59.83;103733.53;4992868;28;20038;-66
2023/01/23 04:21:48;;;;;;;0.30;0.30;;;;;;;10.35;59.91;103739.84;4993776;28;20031;-67
2023/01/23 04:24:17;;;;;;;0.30;0.30;;;;;;;10.60;59.42;103739.94;4992954;28;20031;-65
2023/01/23 04:26:42;;;;;;;0.45;0.45;;;;;;;10.14;59.94;103742.00;4992814;28;20041;-67
2023/01/23 04:29:07;;;;;;;0.30;0.30;;;;;;;10.56;59.03;103743.06;4992732;28;20113;-67
2023/01/23 04:31:33;;;;;;;0.38;0.38;;;;;;;10.57;58.79;103742.91;4992903;28;20060;-68
2023/01/23 04:33:59;;;;;;;0.50;0.50;;;;;;;10.42;59.01;103740.91;4993151;28;20042;-68
2023/01/23 04:36:24;;;;;;;0.40;0.40;;;;;;;10.47;59.59;103741.31;4993045;28;20050;-68
2023/01/23 04:38:49;;;;;;;0.40;0.40;;;;;;;10.46;58.97;103743.16;4992533;28;20147;-66
2023/01/23 04:41:23;;;;;;;0.40;0.40;;;;;;;10.75;59.00;103745.59;4992556;28;20065;-68
2023/01/23 04:43:49;;;;;;;0.40;0.40;;;;;;;9.77;60.87;103742.88;4992326;28;20089;-68
2023/01/23 04:46:14;;;;;;;0.30;0.30;;;;;;;10.30;60.33;103740.28;4992441;28;20034;-67
2023/01/23 04:48:40;;;;;;;0.30;0.30;;;;;;;10.37;60.00;103736.03;4992457;28;20483;-67
2023/01/23 04:51:05;;;;;;;0.35;0.35;;;;;;;10.31;59.34;103744.69;4992291;28;20045;-68
2023/01/23 04:53:31;;;;;;;0.30;0.30;;;;;;;10.37;59.69;103743.22;4992372;28;20045;-67
2023/01/23 04:55:57;;;;;;;0.40;0.40;;;;;;;10.30;59.90;103742.16;5009432;28;20388;-66
2023/01/23 04:58:22;;;;;;;0.30;0.30;;;;;;;10.43;59.44;103746.16;4989790;28;20046;-65
2023/01/23 05:00:48;;;;;;;0.30;0.30;;;;;;;10.36;59.75;103744.22;4991966;28;20026;-67
2023/01/23 05:03:14;;;;;;;0.38;0.38;;;;;;;10.42;59.29;103743.59;4984864;28;20442;-66
2023/01/23 05:05:41;;;;;;;0.30;0.30;;;;;;;10.41;59.41;103747.31;4990624;28;20050;-66
2023/01/23 05:08:07;;;;;;;0.22;0.22;;;;;;;10.26;60.07;103763.09;4988944;28;20030;-66
2023/01/23 05:10:32;;;;;;;0.32;0.32;;;;;;;10.44;60.01;103765.81;4988673;28;20031;-67
2023/01/23 05:12:58;;;;;;;0.40;0.40;;;;;;;10.59;58.79;103759.72;4990979;28;20026;-67
2023/01/23 05:15:23;;;;;;;0.22;0.22;;;;;;;10.81;58.26;103753.03;4989036;28;20439;-66
2023/01/23 05:17:49;;;;;;;0.40;0.40;;;;;;;10.67;58.65;103761.69;4991621;28;20034;-67
2023/01/23 05:20:14;;;;;;;0.40;0.40;;;;;;;10.13;60.00;103764.47;4991428;28;20406;-67
2023/01/23 05:22:51;;;;;;;0.20;0.20;;;;;;;10.54;59.36;103759.38;4991864;28;20450;-66
2023/01/23 05:25:18;;;;;;;0.25;0.25;;;;;;;10.55;58.88;103768.28;4992156;28;20509;-65
2023/01/23 05:27:43;;;;;;;0.20;0.20;;;;;;;10.56;58.71;103762.75;4992628;28;20434;-66
2023/01/23 05:30:10;;;;;;;0.30;0.30;;;;;;;10.60;58.60;103772.19;4991520;28;20050;-66
2023/01/23 05:32:35;;;;;;;0.30;0.30;;;;;;;10.74;58.55;103772.63;4991500;28;20042;-67
2023/01/23 05:35:01;;;;;;;0.30;0.30;;;;;;;10.55;58.65;103774.47;4991565;28;20034;-66
2023/01/23 05:37:26;;;;;;;0.50;0.50;;;;;;;10.59;58.79;103770.50;4991688;28;20125;-65
2023/01/23 05:39:52;;;;;;;0.40;0.40;;;;;;;10.63;58.51;103772.88;4992108;28;20501;-67
2023/01/23 05:42:17;;;;;;;0.40;0.40;;;;;;;10.53;59.27;103770.28;4989828;28;20034;-66
2023/01/23 05:44:43;;;;;;;0.22;0.22;;;;;;;10.66;58.30;103778.78;4990453;28;20582;-66
2023/01/23 05:47:08;;;;;;;0.30;0.30;;;;;;;10.43;59.45;103780.25;4989016;28;20026;-68
2023/01/23 05:49:33;;;;;;;0.30;0.30;;;;;;;10.45;59.33;103781.81;4990049;28;20117;-67
2023/01/23 05:51:59;;;;;;;0.22;0.22;;;;;;;10.46;59.56;103779.94;4990939;28;20299;-66
2023/01/23 05:54:24;;;;;;;0.35;0.35;;;;;;;10.58;58.90;103778.72;4989383;28;20112;-68
2023/01/23 05:56:49;;;;;;;0.30;0.30;;;;;;;10.53;59.35;103772.97;4989544;28;20511;-67
2023/01/23 05:59:15;;;;;;;0.30;0.30;;;;;;;10.47;59.20;103778.97;4989958;28;20048;-66
2023/01/23 06:01:40;;;;;;;0.20;0.20;;;;;;;10.68;58.75;103768.72;4989112;28;20034;-66
2023/01/23 06:04:06;;;;;;;0.30;0.30;;;;;;;10.65;58.75;103773.59;4989549;28;20129;-66
2023/01/23 06:06:31;;;;;;;0.30;0.30;;;;;;;10.05;59.45;103770.56;4988358;28;20426;-66
2023/01/23 06:08:58;;;;;;;0.20;0.20;;;;;;;10.28;59.70;103774.53;4989459;28;20837;-66
2023/01/23 06:11:24;;;;;;;0.38;0.38;;;;;;;10.69;58.73;103785.72;4989955;28;20112;-66
2023/01/23 06:13:49;;;;;;;0.30;0.30;;;;;;;10.72;58.43;103785.41;4989730;28;20108;-68
2023/01/23 06:16:14;;;;;;;0.30;0.30;;;;;;;10.53;59.25;103781.03;4990536;28;20061;-68
2023/01/23 06:18:40;;;;;;;0.40;0.40;;;;;;;10.47;59.22;103776.25;4991122;28;20085;-68
2023/01/23 06:21:05;;;;;;;0.40;0.40;;;;;;;10.30;60.52;103777.94;4990679;28;20045;-68
2023/01/23 06:23:31;;;;;;;0.40;0.40;;;;;;;10.48;59.48;103773.41;4984885;28;20518;-68
2023/01/23 06:26:01;;;;;;;0.47;0.47;;;;;;;10.76;58.79;103778.72;4990603;28;20054;-67
2023/01/23 06:28:27;;;;;;;0.30;0.30;;;;;;;10.80;58.11;103780.09;4990487;28;20042;-68
2023/01/23 06:30:52;;;;;;;0.38;0.38;;;;;;;10.83;58.32;103779.81;4991602;28;20605;-66
2023/01/23 06:33:18;;;;;;;0.30;0.30;;;;;;;10.17;59.94;103781.97;4989730;28;20050;-67
2023/01/23 06:35:43;;;;;;;0.30;0.30;;;;;;;10.13;60.63;103784.13;4991011;28;20057;-67
2023/01/23 06:38:09;;;;;;;0.32;0.32;;;;;;;9.64;62.23;103784.47;4990863;28;20042;-69
2023/01/23 06:40:34;;;;;;;0.50;0.50;;;;;;;10.06;61.11;103796.44;4990097;28;20398;-67
2023/01/23 06:43:00;;;;;;;0.30;0.30;;;;;;;10.21;60.99;103792.28;4991569;28;20035;-68
2023/01/23 06:45:25;;;;;;;0.30;0.30;;;;;;;10.20;60.83;103795.13;4990700;28;20149;-68
2023/01/23 06:47:51;;;;;;;0.30;0.30;;;;;;;10.35;60.45;103797.16;4989420;28;20034;-67
2023/01/23 06:50:17;;;;;;;0.40;0.40;;;;;;;9.53;62.37;103798.91;4979681;28;20093;-67
2023/01/23 06:52:42;;;;;;;0.30;0.30;;;;;;;10.23;60.75;103810.94;4990114;28;20286;-66
2023/01/23 06:55:08;;;;;;;0.40;0.40;;;;;;;9.78;61.01;103810.84;4990478;28;20048;-68
2023/01/23 06:57:34;;;;;;;0.40;0.40;;;;;;;10.27;60.72;103813.19;4990706;28;20042;-68
2023/01/23 07:00:00;;;;;;;0.50;0.50;;;;;;;9.94;61.35;103813.75;4990418;28;20070;-68
2023/01/23 07:02:25;;;;;;;0.30;0.30;;;;;;;10.14;61.01;103814.53;4989791;28;20038;-67
2023/01/23 07:04:51;;;;;;;0.35;0.35;;;;;;;10.30;60.30;103817.41;4989511;28;20042;-68
2023/01/23 07:07:17;;;;;;;0.30;0.30;;;;;;;10.29;60.61;103821.09;4992077;28;20616;-68
2023/01/23 07:09:42;;;;;;;0.35;0.35;;;;;;;10.63;59.36;103823.97;4993568;28;20486;-70
2023/01/23 07:12:08;;;;;;;0.30;0.30;;;;;;;10.85;58.79;103823.53;4993126;28;20030;-69
2023/01/23 07:14:33;;;;;;;0.30;0.30;;;;;;;10.86;58.15;103827.91;4993475;28;20066;-68
2023/01/23 07:17:00;;;;;;;0.30;0.30;;;;;;;10.26;60.28;103822.22;4993424;28;20445;-68
2023/01/23 07:19:25;;;;;;;0.30;0.30;;;;;;;10.66;59.31;103831.72;4993556;28;20064;-69
2023/01/23 07:21:51;;;;;;;0.30;0.30;;;;;;;10.73;58.38;103827.44;4994160;28;20459;-67
2023/01/23 07:24:16;;;;;;;0.20;0.20;;;;;;;10.71;59.00;103827.59;4994358;28;20134;-66
2023/01/23 07:26:41;;;;;;;0.30;0.30;;;;;;;10.97;58.02;103824.97;4983965;28;20053;-66
2023/01/23 07:29:10;;;;;;;0.30;0.30;;;;;;;10.56;59.16;103831.81;4985861;28;20442;-69
2023/01/23 07:31:35;;;;;;;0.30;0.30;;;;;;;10.86;58.56;103830.59;4983770;28;20062;-67
2023/01/23 07:34:01;;;;;;;0.40;0.40;;;;;;;10.71;58.49;103829.44;4989256;28;20036;-69
2023/01/23 07:36:27;;;;;;;0.30;0.30;;;;;;;10.91;58.28;103828.31;4993067;28;20040;-67
2023/01/23 07:38:54;;;;;;;0.20;0.20;;;;;;;10.85;58.29;103827.03;4986329;28;20045;-68
2023/01/23 07:41:19;;;;;;;0.20;0.20;;;;;;;10.59;58.77;103837.72;4987236;28;20502;-68
2023/01/23 07:43:45;;;;;;;0.40;0.40;;;;;;;10.91;58.07;103839.06;4987532;28;20037;-67
2023/01/23 07:46:10;;;;;;;0.30;0.30;;;;;;;10.85;57.99;103845.88;4991282;28;20038;-67
2023/01/23 07:48:36;;;;;;;0.40;0.40;;;;;;;10.79;58.63;103846.50;4989502;28;20528;-67
2023/01/23 07:51:03;;;;;;;0.30;0.30;;;;;;;10.75;58.82;103852.34;4987666;28;20039;-66
2023/01/23 07:53:28;;;;;;;0.30;0.30;;;;;;;10.39;59.73;103854.13;4988272;28;20050;-69
2023/01/23 07:55:54;;;;;;;0.20;0.20;;;;;;;10.86;58.62;103852.97;4998326;28;20041;-66
2023/01/23 07:58:19;;;;;;;0.40;0.40;;;;;;;11.00;57.92;103852.44;4988605;28;20042;-68
2023/01/23 08:00:45;;;;;;;0.38;0.38;;;;;;;10.97;58.03;103852.72;4987816;28;20479;-68
2023/01/23 08:03:10;;;;;;;0.30;0.30;;;;;;;10.34;59.36;103856.41;4989654;28;20286;-68
2023/01/23 08:05:36;;;;;;;0.45;0.45;;;;;;;10.59;59.39;103851.16;4988528;28;20511;-70
2023/01/23 08:08:02;;;;;;;0.40;0.40;;;;;;;10.50;59.69;103849.41;4989063;28;20062;-67
2023/01/23 08:10:27;;;;;;;0.20;0.20;;;;;;;10.81;58.76;103855.25;4990331;28;20042;-68
2023/01/23 08:12:53;;;;;;;0.30;0.30;;;;;;;10.80;58.93;103858.97;4987820;28;20110;-67
2023/01/23 08:15:18;;;;;;;0.35;0.35;;;;;;;10.55;58.90;103852.47;4988344;28;20042;-67
2023/01/23 08:17:43;;;;;;;0.40;0.40;;;;;;;10.97;58.35;103866.19;4988292;28;20038;-68
2023/01/23 08:20:09;;;;;;;0.30;0.30;;;;;;;11.07;57.74;103858.88;4987028;28;20040;-68
2023/01/23 08:22:36;;;;;;;0.40;0.40;;;;;;;11.07;58.00;103876.84;4986230;28;20450;-67
2023/01/23 08:25:02;;;;;;;0.43;0.43;;;;;;;10.98;58.14;103873.25;4989677;28;20117;-66
2023/01/23 08:27:27;;;;;;;0.32;0.32;;;;;;;11.03;57.97;103873.63;4986212;28;20513;-67
2023/01/23 08:29:52;;;;;;;0.45;0.45;;;;;;;10.53;59.64;103885.91;4986726;28;20113;-67
2023/01/23 08:32:18;;;;;;;0.40;0.40;;;;;;;10.85;58.53;103886.22;4985487;28;20121;-67
2023/01/23 08:34:43;;;;;;;0.50;0.50;;;;;;;10.69;59.40;103885.22;4989810;28;20081;-66
2023/01/23 08:37:08;;;;;;;0.30;0.30;;;;;;;10.67;59.54;103889.91;4989251;28;20026;-68
2023/01/23 08:39:34;;;;;;;0.30;0.30;;;;;;;11.14;58.61;103894.94;4987309;28;20088;-68
2023/01/23 08:41:59;;;;;;;0.50;0.50;;;;;;;11.23;57.79;103885.94;4996234;28;20040;-67
2023/01/23 08:44:25;;;;;;;0.30;0.30;;;;;;;11.17;57.50;103874.94;4985235;28;20050;-68
2023/01/23 08:46:50;;;;;;;0.40;0.40;;;;;;;11.36;57.55;103877.47;4987715;28;20209;-68
2023/01/23 08:49:18;;;;;;;0.32;0.32;;;;;;;11.16;58.23;103876.78;4985482;28;20062;-67
2023/01/23 08:51:43;;;;;;;0.20;0.20;;;;;;;11.41;57.44;103885.91;4986328;28;20023;-67
2023/01/23 08:54:09;;;;;;;0.40;0.40;;;;;;;10.94;57.87;103888.03;4987126;28;20619;-68
2023/01/23 08:56:34;;;;;;;0.35;0.35;;;;;;;11.14;58.34;103883.34;4984650;28;20042;-67
2023/01/23 08:59:00;;;;;;;0.38;0.38;;;;;;;11.35;57.92;103883.84;4984770;28;20097;-69
2023/01/23 09:01:26;;;;;;;0.25;0.25;;;;;;;11.52;57.14;103892.91;4984963;28;20034;-66
2023/01/23 09:03:51;;;;;;;0.40;0.40;;;;;;;11.44;57.48;103891.81;4986934;28;20091;-66
2023/01/23 09:06:19;;;;;;;0.40;0.40;;;;;;;11.40;57.72;103900.34;4987096;28;20214;-67
2023/01/23 09:08:45;;;;;;;0.50;0.50;;;;;;;11.11;58.51;103905.16;4986214;28;20034;-66
2023/01/23 09:11:11;;;;;;;0.32;0.32;;;;;;;11.13;58.34;103904.00;4990343;28;20594;-68
2023/01/23 09:13:37;;;;;;;0.30;0.30;;;;;;;11.01;58.28;103904.38;4989491;28;20459;-66
2023/01/23 09:16:04;;;;;;;0.30;0.30;;;;;;;11.50;57.64;103906.50;4990173;28;20018;-67
2023/01/23 09:18:29;;;;;;;0.40;0.40;;;;;;;11.45;57.70;103914.22;4989896;28;20630;-66
2023/01/23 09:20:55;;;;;;;0.20;0.20;;;;;;;11.54;57.40;103909.75;4990696;28;20026;-66
2023/01/23 09:23:21;;;;;;;0.20;0.20;;;;;;;11.56;57.27;103902.38;4987856;28;20038;-67
2023/01/23 09:25:47;;;;;;;0.30;0.30;;;;;;;11.44;57.61;103902.59;4989089;28;20043;-68
2023/01/23 09:28:12;;;;;;;0.20;0.20;;;;;;;11.19;57.79;103905.22;4989811;28;20499;-67
2023/01/23 09:30:38;;;;;;;0.30;0.30;;;;;;;11.20;58.47;103913.16;4991390;28;20391;-68
2023/01/23 09:33:05;;;;;;;0.40;0.40;;;;;;;11.21;58.54;103914.84;4989621;28;20038;-67
2023/01/23 09:35:31;;;;;;;0.32;0.32;;;;;;;10.70;60.17;103908.44;4990133;28;20038;-67
2023/01/23 09:37:59;;;;;;;0.30;0.30;;;;;;;10.53;60.49;103918.16;4989995;28;20049;-67
2023/01/23 09:40:29;;;;;;;0.20;0.20;;;;;;;10.81;60.30;103917.13;4989697;28;20125;-67
2023/01/23 09:43:02;;;;;;;0.30;0.30;;;;;;;10.69;60.68;103904.91;4987733;28;20398;-67
2023/01/23 09:45:29;;;;;;;0.30;0.30;;;;;;;10.69;59.98;103907.59;4988030;28;20069;-68
2023/01/23 09:48:09;;;;;;;0.40;0.40;;;;;;;11.19;58.89;103916.84;4988718;28;20038;-67
2023/01/23 09:50:50;;;;;;;0.35;0.35;;;;;;;11.15;58.81;103912.78;4990398;28;20050;-66
2023/01/23 09:53:20;;;;;;;0.32;0.32;;;;;;;10.82;59.69;103921.53;4989336;28;20042;-67
2023/01/23 09:55:56;;;;;;;0.45;0.45;;;;;;;11.07;59.08;103923.47;4989327;28;20042;-67
2023/01/23 09:58:36;;;;;;;0.30;0.30;;;;;;;10.95;59.62;103926.50;4989249;28;20041;-68
2023/01/23 10:01:01;;;;;;;0.40;0.40;;;;;;;11.20;58.77;103928.47;4989579;28;20039;-68
2023/01/23 10:03:30;;;;;;;0.20;0.20;;;;;;;11.30;58.38;103927.38;4990501;28;20041;-67
2023/01/23 10:06:18;;;;;;;0.30;0.30;;;;;;;11.25;58.93;103934.22;4990105;28;20466;-66
2023/01/23 10:09:03;;;;;;;0.40;0.40;;;;;;;11.31;58.79;103928.22;4986468;28;20045;-67
2023/01/23 10:11:53;;;;;;;0.35;0.35;;;;;;;11.09;59.18;103934.06;4989764;28;20039;-67
2023/01/23 10:14:19;;;;;;;0.30;0.30;;;;;;;11.17;58.86;103926.06;4989861;28;20188;-67
2023/01/23 10:17:17;;;;;;;0.47;0.47;;;;;;;11.28;58.15;103933.94;4989742;28;20031;-68
2023/01/23 10:20:16;;;;;;;0.28;0.28;;;;;;;11.43;58.83;103927.84;4967544;28;20047;-67
2023/01/23 10:23:20;;;;;;;0.30;0.30;;;;;;;11.39;59.00;103926.47;4966876;28;20046;-68
2023/01/23 10:25:47;;;;;;;0.20;0.20;;;;;;;11.56;58.02;103932.81;4963671;28;20556;-67
2023/01/23 10:28:18;;;;;;;0.20;0.20;;;;;;;11.89;57.04;103928.56;4966972;28;20088;-66
2023/01/23 10:30:48;;;;;;;0.40;0.40;;;;;;;11.97;56.58;103918.66;4968353;28;20157;-67
2023/01/23 10:33:17;;;;;;;0.20;0.20;;;;;;;12.12;56.17;103905.44;4966392;28;20094;-67
2023/01/23 10:35:53;;;;;;;0.30;0.30;;;;;;;11.88;56.43;103908.00;4968327;28;20210;-67
2023/01/23 10:38:55;;;;;;;0.30;0.30;;;;;;;12.03;56.30;103903.69;4967562;28;20058;-66
2023/01/23 10:41:21;;;;;;;0.40;0.40;;;;;;;12.14;56.07;103904.28;4968053;28;20109;-68
2023/01/23 10:43:52;;;;;;;0.22;0.22;;;;;;;12.14;56.02;103906.97;4970384;28;20109;-66
2023/01/23 10:46:21;;;;;;;0.43;0.43;;;;;;;11.99;56.13;103913.13;4970349;28;20105;-66
2023/01/23 10:48:53;;;;;;;0.30;0.30;;;;;;;12.45;55.58;103925.31;4971492;28;20057;-68
2023/01/23 10:51:27;;;;;;;0.40;0.40;;;;;;;11.73;57.23;103912.28;4971488;28;20050;-66
2023/01/23 10:53:59;;;;;;;0.20;0.20;;;;;;;11.58;57.64;103914.66;4971708;28;20050;-66
2023/01/23 10:56:25;;;;;;;0.28;0.28;;;;;;;10.93;58.66;103918.59;4986205;28;20054;-67
2023/01/23 10:58:54;;;;;;;0.40;0.40;;;;;;;11.91;56.63;103913.06;4994203;28;20388;-66
2023/01/23 11:01:29;;;;;;;0.45;0.45;;;;;;;12.20;56.31;103914.44;5000765;28;20049;-68
2023/01/23 11:03:55;;;;;;;0.40;0.40;;;;;;;12.30;55.93;103908.91;4993641;28;20094;-66
2023/01/23 11:06:24;;;;;;;0.30;0.30;;;;;;;12.16;56.00;103902.28;4992325;28;20034;-68
2023/01/23 11:08:59;;;;;;;0.43;0.43;;;;;;;12.03;56.30;103903.69;4992415;28;20073;-67
2023/01/23 11:11:30;;;;;;;0.32;0.32;;;;;;;12.16;56.33;103909.50;4992649;28;20038;-67
2023/01/23 11:14:15;;;;;;;0.40;0.40;;;;;;;12.27;56.60;103914.59;4990331;28;20034;-67
2023/01/23 11:16:41;;;;;;;0.20;0.20;;;;;;;12.36;55.48;103924.44;4991611;28;20438;-67
2023/01/23 11:19:07;;;;;;;0.30;0.30;;;;;;;11.91;56.61;103919.28;4992169;28;20053;-67
2023/01/23 11:21:47;;;;;;;0.30;0.30;;;;;;;11.95;56.26;103915.28;4992904;28;20467;-67
2023/01/23 11:24:33;;;;;;;0.30;0.30;;;;;;;11.38;57.83;103923.91;4992792;28;20467;-68
2023/01/23 11:27:03;;;;;;;0.40;0.40;;;;;;;11.80;56.95;103924.94;4992394;28;20117;-67
2023/01/23 11:29:41;;;;;;;0.30;0.30;;;;;;;12.34;55.62;103916.50;4991438;28;20047;-67
2023/01/23 11:32:11;;;;;;;0.40;0.40;;;;;;;12.13;56.55;103907.97;4991074;28;20041;-67
2023/01/23 11:34:48;;;;;;;0.32;0.32;;;;;;;11.67;57.83;103918.28;4992937;28;20046;-66